createdAt,value
2023-02-18T00:00:29.573Z,3.21
2023-02-18T00:02:56.345Z,3.26
2023-02-18T00:05:23.425Z,3.25
2023-02-18T00:07:50.499Z,3.26
2023-02-18T00:10:17.733Z,3.30
2023-02-18T00:12:44.879Z,3.29
2023-02-18T00:15:14.475Z,3.25
2023-02-18T00:17:41.191Z,3.24
2023-02-18T00:20:08.740Z,3.21
2023-02-18T00:22:35.538Z,3.23
2023-02-18T00:25:02.282Z,3.25
2023-02-18T00:27:29.102Z,3.33
2023-02-18T00:29:56.056Z,3.34
2023-02-18T00:32:24.264Z,3.27
2023-02-18T00:34:51.057Z,3.20
2023-02-18T00:37:17.795Z,3.13
2023-02-18T00:39:44.533Z,3.15
2023-02-18T00:42:11.666Z,3.22
2023-02-18T00:44:38.611Z,3.24
2023-02-18T00:47:05.407Z,3.23
2023-02-18T00:49:33.547Z,3.24
2023-02-18T00:52:00.356Z,3.31
2023-02-18T00:54:27.312Z,3.26
2023-02-18T00:56:54.057Z,3.19
2023-02-18T00:59:20.913Z,3.11
2023-02-18T01:01:47.657Z,3.07
2023-02-18T01:04:14.460Z,3.16
2023-02-18T01:06:42.697Z,3.18
2023-02-18T01:09:10.274Z,3.14
2023-02-18T01:11:37.153Z,3.07
2023-02-18T01:14:04.331Z,3.08
2023-02-18T01:16:31.320Z,3.03
2023-02-18T01:18:58.075Z,3.10
2023-02-18T01:21:24.841Z,3.18
2023-02-18T01:23:52.998Z,3.27
2023-02-18T01:26:19.760Z,3.29
2023-02-18T01:28:46.530Z,3.22
2023-02-18T01:31:14.219Z,3.18
2023-02-18T01:33:41.450Z,3.19
2023-02-18T01:36:10.164Z,3.24
2023-02-18T01:38:37.262Z,3.26
2023-02-18T01:41:05.696Z,3.27
2023-02-18T01:43:33.688Z,3.24
2023-02-18T01:46:08.254Z,3.27
2023-02-18T01:48:39.793Z,3.32
2023-02-18T01:51:11.818Z,3.37
2023-02-18T01:53:45.905Z,3.28
2023-02-18T01:56:20.008Z,3.29
2023-02-18T01:58:47.683Z,3.23
2023-02-18T02:01:14.645Z,3.24
2023-02-18T02:03:41.500Z,3.11
2023-02-18T02:06:15.464Z,3.15
2023-02-18T02:08:42.503Z,3.09
2023-02-18T02:11:22.837Z,3.08
2023-02-18T02:14:01.808Z,3.06
2023-02-18T02:16:38.096Z,3.11
2023-02-18T02:19:29.071Z,3.22
2023-02-18T02:22:24.161Z,3.18
2023-02-18T02:25:00.027Z,3.14
2023-02-18T02:27:44.187Z,3.14
2023-02-18T02:30:52.102Z,3.12
2023-02-18T02:33:35.919Z,3.17
2023-02-18T02:36:13.589Z,3.16
2023-02-18T02:38:48.898Z,3.15
2023-02-18T02:41:27.121Z,3.00
2023-02-18T02:44:05.593Z,2.99
2023-02-18T02:46:41.213Z,3.10
2023-02-18T02:49:19.057Z,3.06
2023-02-18T02:51:53.946Z,3.07
2023-02-18T02:54:23.570Z,3.20
2023-02-18T02:56:50.484Z,3.25
2023-02-18T02:59:22.540Z,3.18
2023-02-18T03:02:04.536Z,3.24
2023-02-18T03:04:51.419Z,3.28
2023-02-18T03:07:37.980Z,3.14
2023-02-18T03:10:23.441Z,3.06
2023-02-18T03:12:59.544Z,3.07
2023-02-18T03:15:36.632Z,2.99
2023-02-18T03:18:08.370Z,3.07
2023-02-18T03:20:37.295Z,3.09
2023-02-18T03:23:11.394Z,3.08
2023-02-18T03:25:40.146Z,3.02
2023-02-18T03:28:12.100Z,3.03
2023-02-18T03:30:43.398Z,3.10
2023-02-18T03:33:14.247Z,3.15
2023-02-18T03:35:43.328Z,3.12
2023-02-18T03:38:16.723Z,3.08
2023-02-18T03:40:43.479Z,3.10
2023-02-18T03:43:10.392Z,3.21
2023-02-18T03:45:37.312Z,3.20
2023-02-18T03:48:04.976Z,3.14
2023-02-18T03:50:31.731Z,3.22
2023-02-18T03:52:58.606Z,3.24
2023-02-18T03:55:26.797Z,3.23
2023-02-18T03:57:53.544Z,3.21
2023-02-18T04:00:21.256Z,3.21
2023-02-18T04:02:48.102Z,3.22
2023-02-18T04:05:15.001Z,3.23
2023-02-18T04:07:41.867Z,3.29
2023-02-18T04:10:09.347Z,3.33
2023-02-18T04:12:37.571Z,3.33
2023-02-18T04:15:05.003Z,3.26
2023-02-18T04:17:32.683Z,3.15
2023-02-18T04:20:00.003Z,3.18
2023-02-18T04:22:26.909Z,3.17
2023-02-18T04:24:53.653Z,3.26
2023-02-18T04:27:20.487Z,3.27
2023-02-18T04:29:48.957Z,3.26
2023-02-18T04:32:15.755Z,3.26
2023-02-18T04:34:42.722Z,3.26
2023-02-18T04:37:09.561Z,3.26
2023-02-18T04:39:36.355Z,3.28
2023-02-18T04:42:03.239Z,3.31
2023-02-18T04:44:30.025Z,3.34
2023-02-18T04:46:58.605Z,3.37
2023-02-18T04:49:25.349Z,3.37
2023-02-18T04:51:52.176Z,3.29
2023-02-18T04:54:18.906Z,3.27
2023-02-18T04:56:45.651Z,3.26
2023-02-18T04:59:12.467Z,3.45
2023-02-18T05:01:39.320Z,3.59
2023-02-18T05:04:07.562Z,3.58
2023-02-18T05:06:34.673Z,3.51
2023-02-18T05:09:01.491Z,3.38
2023-02-18T05:11:28.329Z,3.46
2023-02-18T05:13:55.099Z,3.46
2023-02-18T05:16:21.921Z,3.45
2023-02-18T05:18:48.695Z,3.36
2023-02-18T05:21:17.129Z,3.33
2023-02-18T05:23:46.158Z,3.47
2023-02-18T05:26:12.974Z,3.54
2023-02-18T05:28:39.742Z,3.40
2023-02-18T05:31:06.588Z,3.27
2023-02-18T05:33:33.472Z,3.23
2023-02-18T05:36:00.424Z,3.26
2023-02-18T05:38:28.626Z,3.30
2023-02-18T05:40:55.705Z,3.34
2023-02-18T05:43:22.564Z,3.44
2023-02-18T05:45:49.293Z,3.42
2023-02-18T05:48:16.186Z,3.32
2023-02-18T05:50:42.933Z,3.26
2023-02-18T05:53:09.789Z,3.33
2023-02-18T05:55:37.919Z,3.28
2023-02-18T05:58:04.777Z,3.31
2023-02-18T06:00:32.053Z,3.34
2023-02-18T06:02:59.323Z,3.31
2023-02-18T06:05:26.298Z,3.32
2023-02-18T06:07:55.201Z,3.25
2023-02-18T06:10:23.118Z,3.29
2023-02-18T06:12:51.236Z,3.21
2023-02-18T06:15:18.168Z,3.28
2023-02-18T06:17:44.914Z,3.32
2023-02-18T06:20:12.549Z,3.22
2023-02-18T06:22:39.403Z,3.18
2023-02-18T06:25:06.844Z,3.25
2023-02-18T06:27:33.660Z,3.26
2023-02-18T06:30:01.859Z,3.17
2023-02-18T06:32:28.778Z,3.21
2023-02-18T06:34:55.622Z,3.28
2023-02-18T06:37:22.375Z,3.34
2023-02-18T06:39:51.396Z,3.28
2023-02-18T06:42:18.284Z,3.33
2023-02-18T06:44:44.992Z,3.28
2023-02-18T06:47:13.098Z,3.21
2023-02-18T06:49:39.917Z,3.19
2023-02-18T06:52:06.645Z,3.21
2023-02-18T06:54:34.190Z,3.22
2023-02-18T06:57:01.011Z,3.19
2023-02-18T06:59:27.772Z,3.25
2023-02-18T07:01:54.701Z,3.33
2023-02-18T07:04:22.890Z,3.38
2023-02-18T07:06:49.655Z,3.51
2023-02-18T07:09:16.521Z,3.48
2023-02-18T07:11:43.279Z,3.46
2023-02-18T07:14:10.207Z,3.51
2023-02-18T07:16:36.975Z,3.55
2023-02-18T07:19:03.872Z,3.55
2023-02-18T07:21:31.962Z,3.58
2023-02-18T07:23:58.876Z,3.54
2023-02-18T07:26:25.714Z,3.60
2023-02-18T07:28:53.586Z,3.73
2023-02-18T07:31:20.472Z,3.82
2023-02-18T07:33:47.373Z,3.84
2023-02-18T07:36:14.300Z,3.84
2023-02-18T07:38:43.066Z,3.81
2023-02-18T07:41:17.169Z,3.82
2023-02-18T07:43:43.921Z,3.79
2023-02-18T07:46:11.677Z,3.79
2023-02-18T07:48:38.591Z,3.81
2023-02-18T07:51:06.735Z,3.82
2023-02-18T07:53:33.606Z,3.88
2023-02-18T07:56:01.879Z,3.92
2023-02-18T07:58:30.986Z,3.86
2023-02-18T08:00:58.188Z,4.00
2023-02-18T08:03:26.810Z,4.00
2023-02-18T08:05:54.721Z,4.01
2023-02-18T08:08:22.938Z,4.06
2023-02-18T08:10:50.986Z,4.12
2023-02-18T08:13:19.263Z,4.19
2023-02-18T08:15:46.346Z,4.23
2023-02-18T08:18:18.066Z,4.25
2023-02-18T08:20:44.820Z,4.32
2023-02-18T08:23:11.601Z,4.37
2023-02-18T08:25:38.384Z,4.44
2023-02-18T08:28:05.304Z,4.59
2023-02-18T08:30:33.631Z,4.81
2023-02-18T08:33:00.950Z,5.02
2023-02-18T08:35:27.890Z,5.19
2023-02-18T08:37:55.154Z,5.43
2023-02-18T08:40:22.843Z,5.70
2023-02-18T08:42:49.734Z,5.95
2023-02-18T08:45:17.676Z,6.16
2023-02-18T08:48:17.284Z,6.48
2023-02-18T08:50:33.109Z,6.76
2023-02-18T08:53:00.228Z,7.00
2023-02-18T08:55:27.170Z,7.17
2023-02-18T08:57:54.056Z,7.38
2023-02-18T09:00:21.194Z,7.58
2023-02-18T09:02:49.383Z,7.83
2023-02-18T09:05:16.705Z,8.08
2023-02-18T09:07:43.628Z,8.34
2023-02-18T09:10:11.913Z,8.62
2023-02-18T09:12:39.264Z,8.86
2023-02-18T09:15:06.796Z,9.08
2023-02-18T09:17:33.789Z,9.29
2023-02-18T09:20:02.322Z,9.45
2023-02-18T09:22:29.534Z,9.63
2023-02-18T09:24:56.532Z,9.72
2023-02-18T09:27:23.371Z,9.87
2023-02-18T09:29:50.268Z,9.98
2023-02-18T09:32:28.804Z,10.02
2023-02-18T09:35:02.370Z,9.89
2023-02-18T09:37:29.138Z,9.78
2023-02-18T09:39:55.893Z,9.59
2023-02-18T09:42:29.286Z,9.38
2023-02-18T09:44:59.694Z,9.31
2023-02-18T09:47:32.969Z,9.32
2023-02-18T09:50:05.478Z,9.25
2023-02-18T09:52:34.291Z,9.26
2023-02-18T09:55:01.999Z,9.29
2023-02-18T09:57:36.435Z,9.25
2023-02-18T10:00:10.975Z,9.35
2023-02-18T10:02:39.925Z,9.37
2023-02-18T10:05:15.240Z,9.37
2023-02-18T10:07:44.001Z,9.47
2023-02-18T10:10:21.265Z,9.58
2023-02-18T10:12:48.937Z,9.69
2023-02-18T10:15:22.364Z,9.80
2023-02-18T10:17:50.900Z,9.99
2023-02-18T10:20:24.773Z,10.20
2023-02-18T10:22:54.464Z,10.33
2023-02-18T10:25:24.303Z,10.36
2023-02-18T10:27:53.164Z,10.34
2023-02-18T10:30:27.668Z,10.30
2023-02-18T10:33:00.925Z,10.40
2023-02-18T10:35:34.727Z,10.49
2023-02-18T10:38:12.199Z,10.52
2023-02-18T10:40:51.350Z,10.55
2023-02-18T10:43:26.736Z,10.58
2023-02-18T10:46:01.744Z,10.60
2023-02-18T10:48:51.101Z,10.64
2023-02-18T10:51:22.072Z,10.86
2023-02-18T10:53:52.233Z,10.97
2023-02-18T10:56:39.518Z,10.99
2023-02-18T10:59:12.195Z,11.05
2023-02-18T11:01:41.030Z,11.07
2023-02-18T11:04:14.116Z,11.00
2023-02-18T11:06:45.947Z,10.92
2023-02-18T11:09:28.900Z,10.80
2023-02-18T11:12:08.384Z,10.70
2023-02-18T11:14:44.612Z,10.60
2023-02-18T11:17:22.507Z,10.48
2023-02-18T11:19:55.401Z,10.40
2023-02-18T11:22:25.965Z,10.28
2023-02-18T11:24:56.209Z,10.11
2023-02-18T11:27:27.707Z,9.94
2023-02-18T11:30:00.359Z,9.81
2023-02-18T11:32:28.300Z,9.66
2023-02-18T11:34:55.612Z,9.57
2023-02-18T11:37:24.838Z,9.49
2023-02-18T11:39:54.478Z,9.52
2023-02-18T11:42:24.796Z,9.52
2023-02-18T11:44:53.942Z,9.45
2023-02-18T11:47:23.988Z,9.25
2023-02-18T11:50:04.702Z,9.19
2023-02-18T11:52:37.484Z,9.12
2023-02-18T11:55:07.837Z,9.13
2023-02-18T11:57:38.460Z,9.31
2023-02-18T12:00:15.199Z,9.21
2023-02-18T12:02:42.143Z,9.18
2023-02-18T12:05:15.301Z,9.16
2023-02-18T12:07:47.088Z,8.99
2023-02-18T12:10:20.384Z,9.03
2023-02-18T12:12:51.604Z,9.03
2023-02-18T12:15:26.975Z,8.87
2023-02-18T12:18:13.841Z,8.84
2023-02-18T12:20:54.402Z,8.74
2023-02-18T12:23:30.103Z,8.68
2023-02-18T12:26:03.620Z,8.62
2023-02-18T12:28:44.891Z,8.58
2023-02-18T12:31:29.249Z,8.74
2023-02-18T12:34:07.283Z,8.68
2023-02-18T12:36:46.474Z,8.64
2023-02-18T12:39:28.868Z,8.59
2023-02-18T12:42:13.297Z,8.46
2023-02-18T12:44:45.528Z,8.38
2023-02-18T12:47:44.243Z,8.52
2023-02-18T12:50:57.997Z,8.49
2023-02-18T12:53:41.235Z,8.37
2023-02-18T12:56:35.092Z,8.39
2023-02-18T12:59:14.711Z,8.38
2023-02-18T13:01:52.778Z,8.31
2023-02-18T13:04:36.831Z,8.30
2023-02-18T13:07:38.097Z,8.30
2023-02-18T13:10:53.450Z,8.30
2023-02-18T13:13:25.590Z,8.30
2023-02-18T13:15:56.846Z,8.39
2023-02-18T13:18:29.037Z,8.58
2023-02-18T13:20:59.734Z,8.75
2023-02-18T13:23:30.270Z,8.99
2023-02-18T13:26:01.209Z,9.12
2023-02-18T13:28:37.453Z,9.26
2023-02-18T13:31:22.737Z,9.45
2023-02-18T13:33:57.581Z,9.61
2023-02-18T13:36:36.346Z,9.78
2023-02-18T13:39:07.080Z,9.92
2023-02-18T13:41:39.010Z,10.05
2023-02-18T13:44:56.160Z,10.12
2023-02-18T13:47:37.619Z,10.13
2023-02-18T13:50:16.993Z,10.23
2023-02-18T13:52:43.855Z,10.29
2023-02-18T13:55:20.561Z,10.32
2023-02-18T13:57:49.804Z,10.39
2023-02-18T14:00:24.243Z,10.39
2023-02-18T14:02:59.738Z,10.40
2023-02-18T14:05:39.480Z,10.36
2023-02-18T14:08:13.706Z,10.29
2023-02-18T14:10:40.468Z,10.27
2023-02-18T14:13:41.504Z,10.24
2023-02-18T14:16:11.232Z,10.16
2023-02-18T14:18:59.234Z,10.01
2023-02-18T14:21:40.320Z,9.98
2023-02-18T14:24:09.598Z,10.02
2023-02-18T14:26:40.335Z,10.06
2023-02-18T14:29:14.068Z,10.11
2023-02-18T14:31:52.431Z,10.19
2023-02-18T14:35:02.381Z,10.25
2023-02-18T14:38:02.518Z,10.34
2023-02-18T14:40:58.580Z,10.42
2023-02-18T14:43:46.941Z,10.51
2023-02-18T14:46:25.987Z,10.61
2023-02-18T14:49:08.685Z,10.61
2023-02-18T14:51:36.165Z,10.61
2023-02-18T14:54:05.438Z,10.60
2023-02-18T14:56:37.263Z,10.62
2023-02-18T14:59:05.471Z,10.76
2023-02-18T15:01:34.304Z,10.72
2023-02-18T15:04:03.936Z,10.61
2023-02-18T15:06:32.715Z,10.66
2023-02-18T15:08:59.851Z,10.62
2023-02-18T15:11:35.529Z,10.42
2023-02-18T15:14:10.338Z,10.43
2023-02-18T15:16:37.467Z,10.32
2023-02-18T15:19:13.164Z,10.26
2023-02-18T15:21:43.099Z,10.11
2023-02-18T15:24:19.726Z,10.15
2023-02-18T15:26:48.962Z,10.05
2023-02-18T15:29:19.381Z,9.74
2023-02-18T15:31:47.548Z,9.43
2023-02-18T15:34:30.249Z,9.28
2023-02-18T15:37:02.089Z,9.03
2023-02-18T15:39:30.776Z,8.69
2023-02-18T15:42:01.088Z,8.39
2023-02-18T15:44:31.065Z,8.07
2023-02-18T15:47:01.149Z,7.85
2023-02-18T15:49:29.950Z,7.68
2023-02-18T15:52:00.742Z,7.57
2023-02-18T15:54:28.207Z,7.52
2023-02-18T15:57:00.698Z,7.40
2023-02-18T15:59:30.120Z,7.24
2023-02-18T16:02:02.685Z,7.15
2023-02-18T16:04:34.289Z,6.95
2023-02-18T16:07:04.702Z,6.81
2023-02-18T16:09:33.933Z,6.65
2023-02-18T16:12:06.095Z,6.54
2023-02-18T16:14:35.112Z,6.36
2023-02-18T16:17:14.136Z,6.40
2023-02-18T16:20:03.244Z,6.29
2023-02-18T16:22:35.863Z,6.15
2023-02-18T16:25:14.499Z,6.13
2023-02-18T16:27:49.920Z,6.21
2023-02-18T16:30:23.481Z,6.28
2023-02-18T16:32:51.266Z,6.19
2023-02-18T16:35:20.108Z,6.04
2023-02-18T16:37:47.208Z,5.87
2023-02-18T16:40:28.080Z,5.62
2023-02-18T16:42:56.073Z,5.51
2023-02-18T16:45:33.312Z,5.43
2023-02-18T16:48:00.604Z,5.53
2023-02-18T16:50:31.447Z,5.58
2023-02-18T16:52:59.310Z,5.66
2023-02-18T16:55:28.424Z,5.71
2023-02-18T16:57:55.682Z,5.61
2023-02-18T17:00:23.728Z,5.64
2023-02-18T17:02:55.748Z,5.70
2023-02-18T17:05:27.649Z,5.62
2023-02-18T17:08:04.764Z,5.52
2023-02-18T17:10:35.144Z,5.47
2023-02-18T17:13:02.530Z,5.41
2023-02-18T17:15:31.991Z,5.30
2023-02-18T17:17:59.067Z,5.30
2023-02-18T17:20:26.820Z,5.21
2023-02-18T17:22:53.607Z,5.12
2023-02-18T17:25:28.185Z,5.05
2023-02-18T17:27:55.022Z,5.01
2023-02-18T17:30:22.174Z,4.99
2023-02-18T17:32:49.680Z,5.03
2023-02-18T17:35:18.673Z,5.07
2023-02-18T17:37:45.764Z,5.20
2023-02-18T17:40:17.013Z,5.22
2023-02-18T17:42:45.426Z,5.02
2023-02-18T17:45:20.452Z,5.00
2023-02-18T17:47:47.732Z,5.01
2023-02-18T17:50:14.729Z,5.01
2023-02-18T17:52:42.089Z,4.88
2023-02-18T17:55:22.370Z,4.45
2023-02-18T17:57:52.031Z,4.48
2023-02-18T18:00:22.356Z,4.46
2023-02-18T18:02:49.199Z,4.56
2023-02-18T18:05:21.942Z,4.51
2023-02-18T18:07:49.385Z,4.58
2023-02-18T18:10:17.248Z,4.61
2023-02-18T18:12:44.094Z,4.77
2023-02-18T18:15:28.654Z,4.89
2023-02-18T18:17:55.758Z,4.88
2023-02-18T18:20:23.168Z,4.81
2023-02-18T18:22:50.928Z,4.76
2023-02-18T18:25:20.913Z,4.70
2023-02-18T18:27:48.108Z,4.76
2023-02-18T18:30:15.292Z,4.68
2023-02-18T18:32:43.473Z,4.59
2023-02-18T18:35:19.223Z,4.73
2023-02-18T18:37:46.046Z,4.70
2023-02-18T18:40:12.908Z,4.44
2023-02-18T18:42:39.788Z,4.43
2023-02-18T18:45:16.444Z,4.41
2023-02-18T18:47:44.761Z,4.35
2023-02-18T18:50:12.387Z,4.28
2023-02-18T18:52:39.453Z,4.14
2023-02-18T18:55:18.389Z,4.11
2023-02-18T18:57:47.144Z,4.25
2023-02-18T19:00:15.203Z,4.23
2023-02-18T19:02:42.077Z,4.20
2023-02-18T19:05:17.890Z,4.12
2023-02-18T19:07:44.755Z,3.93
2023-02-18T19:10:11.594Z,4.01
2023-02-18T19:12:38.462Z,4.16
2023-02-18T19:15:05.863Z,4.19
2023-02-18T19:17:32.608Z,4.20
2023-02-18T19:19:59.389Z,4.19
2023-02-18T19:22:27.507Z,3.97
2023-02-18T19:24:56.276Z,3.98
2023-02-18T19:27:23.131Z,4.08
2023-02-18T19:29:49.997Z,4.01
2023-02-18T19:32:16.831Z,4.09
2023-02-18T19:34:43.568Z,4.07
2023-02-18T19:37:10.440Z,4.14
2023-02-18T19:39:38.578Z,4.00
2023-02-18T19:42:05.468Z,3.95
2023-02-18T19:44:33.283Z,3.83
2023-02-18T19:47:00.318Z,3.89
2023-02-18T19:49:28.077Z,3.83
2023-02-18T19:51:57.770Z,3.89
2023-02-18T19:54:24.638Z,3.91
2023-02-18T19:56:52.925Z,3.85
2023-02-18T19:59:19.797Z,3.76
2023-02-18T20:01:46.592Z,3.74
2023-02-18T20:04:13.473Z,3.75
2023-02-18T20:06:40.309Z,3.71
2023-02-18T20:09:07.168Z,3.75
2023-02-18T20:11:34.046Z,3.67
2023-02-18T20:14:02.428Z,3.71
2023-02-18T20:16:30.590Z,3.76
2023-02-18T20:18:57.355Z,3.75
2023-02-18T20:21:24.179Z,3.72
2023-02-18T20:23:53.389Z,3.79
2023-02-18T20:26:20.310Z,3.80
2023-02-18T20:28:47.473Z,3.68
2023-02-18T20:31:16.490Z,3.62
2023-02-18T20:33:43.721Z,3.87
2023-02-18T20:36:13.405Z,3.94
2023-02-18T20:38:40.401Z,3.82
2023-02-18T20:41:09.413Z,3.82
2023-02-18T20:43:36.693Z,3.90
2023-02-18T20:46:04.714Z,3.90
2023-02-18T20:48:33.753Z,3.82
2023-02-18T20:51:04.160Z,3.89
2023-02-18T20:53:31.362Z,3.91
2023-02-18T20:55:58.466Z,3.90
2023-02-18T20:58:25.648Z,3.77
2023-02-18T21:00:59.502Z,3.64
2023-02-18T21:03:27.129Z,3.40
2023-02-18T21:06:00.176Z,3.71
2023-02-18T21:08:27.692Z,3.83
2023-02-18T21:10:55.982Z,3.80
2023-02-18T21:13:24.362Z,3.77
2023-02-18T21:15:51.821Z,3.68
2023-02-18T21:18:19.080Z,3.61
2023-02-18T21:20:46.253Z,3.56
2023-02-18T21:23:14.468Z,3.53
2023-02-18T21:25:41.356Z,3.56
2023-02-18T21:28:08.469Z,3.61
2023-02-18T21:30:36.561Z,3.50
2023-02-18T21:33:04.581Z,3.52
2023-02-18T21:35:31.822Z,3.59
2023-02-18T21:37:58.584Z,3.58
2023-02-18T21:40:26.829Z,3.41
2023-02-18T21:42:53.603Z,3.29
2023-02-18T21:45:20.375Z,3.32
2023-02-18T21:47:47.424Z,3.35
2023-02-18T21:50:15.749Z,3.30
2023-02-18T21:52:43.397Z,3.34
2023-02-18T21:55:10.909Z,3.36
2023-02-18T21:57:39.157Z,3.40
2023-02-18T22:00:19.575Z,3.32
2023-02-18T22:02:47.010Z,3.32
2023-02-18T22:05:13.890Z,3.23
2023-02-18T22:07:40.620Z,3.25
2023-02-18T22:10:07.698Z,3.38
2023-02-18T22:12:34.458Z,3.40
2023-02-18T22:15:02.587Z,3.44
2023-02-18T22:17:29.360Z,3.42
2023-02-18T22:19:56.185Z,3.41
2023-02-18T22:22:23.072Z,3.40
2023-02-18T22:24:50.537Z,3.28
2023-02-18T22:27:17.419Z,3.24
2023-02-18T22:29:44.144Z,3.42
2023-02-18T22:32:12.346Z,3.46
2023-02-18T22:34:39.486Z,3.34
2023-02-18T22:37:06.515Z,3.40
2023-02-18T22:39:33.304Z,3.35
2023-02-18T22:42:00.164Z,3.30
2023-02-18T22:44:26.967Z,3.28
2023-02-18T22:46:55.425Z,3.24
2023-02-18T22:49:24.141Z,3.29
2023-02-18T22:51:52.716Z,3.43
2023-02-18T22:54:20.948Z,3.38
2023-02-18T22:56:48.459Z,3.23
2023-02-18T22:59:17.670Z,3.00
2023-02-18T23:01:46.575Z,3.10
2023-02-18T23:04:16.096Z,3.15
2023-02-18T23:06:46.390Z,3.04
2023-02-18T23:09:15.307Z,2.95
2023-02-18T23:11:42.301Z,2.50
2023-02-18T23:14:09.300Z,2.60
2023-02-18T23:16:36.608Z,2.75
2023-02-18T23:19:03.337Z,2.66
2023-02-18T23:21:30.087Z,2.72
2023-02-18T23:23:58.174Z,2.83
2023-02-18T23:26:25.871Z,2.86
2023-02-18T23:28:53.456Z,3.01
2023-02-18T23:31:22.088Z,2.95
2023-02-18T23:33:50.749Z,2.84
2023-02-18T23:36:20.593Z,2.64
2023-02-18T23:38:48.055Z,2.67
2023-02-18T23:41:16.535Z,2.81
2023-02-18T23:43:43.310Z,2.86
2023-02-18T23:46:10.175Z,2.84
2023-02-18T23:48:38.435Z,2.91
2023-02-18T23:51:07.733Z,2.93
2023-02-18T23:53:36.387Z,2.93
2023-02-18T23:56:06.482Z,2.93
2023-02-18T23:58:35.210Z,2.93
